sensor_id;sensor_type;location;lat;lon;timestamp;P1;durP1;ratioP1;P2;durP2;ratioP2
12675;SDS011;63820;65.654;21.944;2023-03-14T00:01:52;2.63;;;1.07;;
12675;SDS011;63820;65.654;21.944;2023-03-14T00:04:37;2.43;;;1.13;;
12675;SDS011;63820;65.654;21.944;2023-03-14T00:07:20;1.90;;;1.03;;
12675;SDS011;63820;65.654;21.944;2023-03-14T00:10:06;1.70;;;0.90;;
12675;SDS011;63820;65.654;21.944;2023-03-14T00:12:54;2.00;;;0.80;;
12675;SDS011;63820;65.654;21.944;2023-03-14T00:15:38;5.50;;;1.00;;
12675;SDS011;63820;65.654;21.944;2023-03-14T00:18:21;3.50;;;1.10;;
12675;SDS011;63820;65.654;21.944;2023-03-14T00:21:07;2.30;;;1.17;;
12675;SDS011;63820;65.654;21.944;2023-03-14T00:23:53;3.57;;;1.23;;
12675;SDS011;63820;65.654;21.944;2023-03-14T00:26:37;2.90;;;1.37;;
12675;SDS011;63820;65.654;21.944;2023-03-14T00:29:21;3.87;;;2.70;;
12675;SDS011;63820;65.654;21.944;2023-03-14T00:32:05;7.97;;;3.53;;
12675;SDS011;63820;65.654;21.944;2023-03-14T00:34:50;3.23;;;1.70;;
12675;SDS011;63820;65.654;21.944;2023-03-14T00:37:34;3.43;;;1.50;;
12675;SDS011;63820;65.654;21.944;2023-03-14T00:40:18;4.60;;;1.27;;
12675;SDS011;63820;65.654;21.944;2023-03-14T00:43:03;3.27;;;1.00;;
12675;SDS011;63820;65.654;21.944;2023-03-14T00:45:48;3.73;;;0.67;;
12675;SDS011;63820;65.654;21.944;2023-03-14T00:48:32;1.83;;;0.90;;
12675;SDS011;63820;65.654;21.944;2023-03-14T00:51:17;1.50;;;0.80;;
12675;SDS011;63820;65.654;21.944;2023-03-14T00:54:02;1.77;;;0.70;;
12675;SDS011;63820;65.654;21.944;2023-03-14T00:56:47;2.07;;;0.60;;
12675;SDS011;63820;65.654;21.944;2023-03-14T00:59:31;2.13;;;0.63;;
12675;SDS011;63820;65.654;21.944;2023-03-14T01:02:15;3.70;;;0.90;;
12675;SDS011;63820;65.654;21.944;2023-03-14T01:04:59;2.37;;;1.00;;
12675;SDS011;63820;65.654;21.944;2023-03-14T01:07:43;1.30;;;0.60;;
12675;SDS011;63820;65.654;21.944;2023-03-14T01:10:28;1.33;;;0.60;;
12675;SDS011;63820;65.654;21.944;2023-03-14T01:13:12;0.80;;;0.50;;
12675;SDS011;63820;65.654;21.944;2023-03-14T01:16:00;2.90;;;1.00;;
12675;SDS011;63820;65.654;21.944;2023-03-14T01:18:46;1.30;;;0.70;;
12675;SDS011;63820;65.654;21.944;2023-03-14T01:21:31;2.30;;;0.90;;
12675;SDS011;63820;65.654;21.944;2023-03-14T01:24:16;2.10;;;0.80;;
12675;SDS011;63820;65.654;21.944;2023-03-14T01:27:00;3.90;;;0.70;;
12675;SDS011;63820;65.654;21.944;2023-03-14T01:29:44;4.27;;;0.70;;
12675;SDS011;63820;65.654;21.944;2023-03-14T01:32:30;4.53;;;0.80;;
12675;SDS011;63820;65.654;21.944;2023-03-14T01:35:15;4.20;;;0.93;;
12675;SDS011;63820;65.654;21.944;2023-03-14T01:37:59;2.03;;;0.70;;
12675;SDS011;63820;65.654;21.944;2023-03-14T01:40:44;2.13;;;0.90;;
12675;SDS011;63820;65.654;21.944;2023-03-14T01:43:29;1.87;;;0.90;;
12675;SDS011;63820;65.654;21.944;2023-03-14T01:49:15;1.77;;;0.60;;
12675;SDS011;63820;65.654;21.944;2023-03-14T01:52:07;1.17;;;0.80;;
12675;SDS011;63820;65.654;21.944;2023-03-14T01:55:02;3.40;;;1.03;;
12675;SDS011;63820;65.654;21.944;2023-03-14T01:57:55;1.43;;;0.90;;
12675;SDS011;63820;65.654;21.944;2023-03-14T02:00:43;3.90;;;0.67;;
12675;SDS011;63820;65.654;21.944;2023-03-14T02:03:27;3.13;;;0.60;;
12675;SDS011;63820;65.654;21.944;2023-03-14T02:06:14;3.23;;;0.90;;
12675;SDS011;63820;65.654;21.944;2023-03-14T02:09:03;2.10;;;0.60;;
12675;SDS011;63820;65.654;21.944;2023-03-14T02:11:47;0.90;;;0.60;;
12675;SDS011;63820;65.654;21.944;2023-03-14T02:14:35;1.33;;;0.60;;
12675;SDS011;63820;65.654;21.944;2023-03-14T02:17:20;1.43;;;0.63;;
12675;SDS011;63820;65.654;21.944;2023-03-14T02:23:09;1.93;;;0.60;;
12675;SDS011;63820;65.654;21.944;2023-03-14T02:25:58;1.23;;;0.67;;
12675;SDS011;63820;65.654;21.944;2023-03-14T02:28:47;0.60;;;0.50;;
12675;SDS011;63820;65.654;21.944;2023-03-14T02:31:32;2.00;;;0.50;;
12675;SDS011;63820;65.654;21.944;2023-03-14T02:34:18;3.30;;;0.60;;
12675;SDS011;63820;65.654;21.944;2023-03-14T02:37:02;1.23;;;0.60;;
12675;SDS011;63820;65.654;21.944;2023-03-14T02:39:49;2.97;;;0.57;;
12675;SDS011;63820;65.654;21.944;2023-03-14T02:42:33;0.77;;;0.50;;
12675;SDS011;63820;65.654;21.944;2023-03-14T02:48:03;0.80;;;0.50;;
12675;SDS011;63820;65.654;21.944;2023-03-14T02:50:58;0.57;;;0.30;;
12675;SDS011;63820;65.654;21.944;2023-03-14T02:53:44;0.73;;;0.50;;
12675;SDS011;63820;65.654;21.944;2023-03-14T02:56:28;0.50;;;0.37;;
12675;SDS011;63820;65.654;21.944;2023-03-14T02:59:12;1.27;;;0.57;;
12675;SDS011;63820;65.654;21.944;2023-03-14T03:01:56;0.73;;;0.47;;
12675;SDS011;63820;65.654;21.944;2023-03-14T03:04:42;0.73;;;0.60;;
12675;SDS011;63820;65.654;21.944;2023-03-14T03:07:27;1.20;;;0.60;;
12675;SDS011;63820;65.654;21.944;2023-03-14T03:10:12;1.03;;;0.57;;
12675;SDS011;63820;65.654;21.944;2023-03-14T03:12:56;0.70;;;0.50;;
12675;SDS011;63820;65.654;21.944;2023-03-14T03:15:40;1.23;;;0.40;;
12675;SDS011;63820;65.654;21.944;2023-03-14T03:18:25;1.00;;;0.57;;
12675;SDS011;63820;65.654;21.944;2023-03-14T03:21:09;0.73;;;0.50;;
12675;SDS011;63820;65.654;21.944;2023-03-14T03:23:53;1.47;;;0.50;;
12675;SDS011;63820;65.654;21.944;2023-03-14T03:26:38;0.73;;;0.40;;
12675;SDS011;63820;65.654;21.944;2023-03-14T03:29:22;0.40;;;0.40;;
12675;SDS011;63820;65.654;21.944;2023-03-14T03:32:06;1.10;;;0.50;;
12675;SDS011;63820;65.654;21.944;2023-03-14T03:34:50;0.60;;;0.50;;
12675;SDS011;63820;65.654;21.944;2023-03-14T03:37:35;1.20;;;0.77;;
12675;SDS011;63820;65.654;21.944;2023-03-14T03:40:19;0.97;;;0.50;;
12675;SDS011;63820;65.654;21.944;2023-03-14T03:43:03;1.00;;;0.60;;
12675;SDS011;63820;65.654;21.944;2023-03-14T03:45:47;1.40;;;0.60;;
12675;SDS011;63820;65.654;21.944;2023-03-14T03:48:31;1.47;;;0.50;;
12675;SDS011;63820;65.654;21.944;2023-03-14T03:51:16;1.07;;;0.60;;
12675;SDS011;63820;65.654;21.944;2023-03-14T03:54:00;0.97;;;0.60;;
12675;SDS011;63820;65.654;21.944;2023-03-14T03:56:44;1.73;;;0.50;;
12675;SDS011;63820;65.654;21.944;2023-03-14T03:59:29;1.20;;;0.70;;
12675;SDS011;63820;65.654;21.944;2023-03-14T04:02:13;1.93;;;0.60;;
12675;SDS011;63820;65.654;21.944;2023-03-14T04:04:57;3.03;;;0.70;;
12675;SDS011;63820;65.654;21.944;2023-03-14T04:07:43;1.77;;;0.60;;
12675;SDS011;63820;65.654;21.944;2023-03-14T04:10:28;1.43;;;0.70;;
12675;SDS011;63820;65.654;21.944;2023-03-14T04:13:12;1.13;;;0.50;;
12675;SDS011;63820;65.654;21.944;2023-03-14T04:15:57;0.33;;;0.33;;
12675;SDS011;63820;65.654;21.944;2023-03-14T04:18:41;0.80;;;0.50;;
12675;SDS011;63820;65.654;21.944;2023-03-14T04:21:26;0.40;;;0.40;;
12675;SDS011;63820;65.654;21.944;2023-03-14T04:24:10;0.57;;;0.50;;
12675;SDS011;63820;65.654;21.944;2023-03-14T04:26:55;0.70;;;0.40;;
12675;SDS011;63820;65.654;21.944;2023-03-14T04:29:39;2.03;;;0.40;;
12675;SDS011;63820;65.654;21.944;2023-03-14T04:32:23;0.40;;;0.40;;
12675;SDS011;63820;65.654;21.944;2023-03-14T04:35:07;0.50;;;0.50;;
12675;SDS011;63820;65.654;21.944;2023-03-14T04:37:52;1.03;;;0.47;;
12675;SDS011;63820;65.654;21.944;2023-03-14T04:40:37;0.40;;;0.40;;
12675;SDS011;63820;65.654;21.944;2023-03-14T04:43:21;1.60;;;0.50;;
12675;SDS011;63820;65.654;21.944;2023-03-14T04:46:06;0.93;;;0.53;;
12675;SDS011;63820;65.654;21.944;2023-03-14T04:48:50;0.73;;;0.30;;
12675;SDS011;63820;65.654;21.944;2023-03-14T04:51:34;1.30;;;0.60;;
12675;SDS011;63820;65.654;21.944;2023-03-14T04:54:19;0.70;;;0.60;;
12675;SDS011;63820;65.654;21.944;2023-03-14T04:57:03;2.63;;;0.67;;
12675;SDS011;63820;65.654;21.944;2023-03-14T04:59:48;2.53;;;0.43;;
12675;SDS011;63820;65.654;21.944;2023-03-14T05:02:33;0.90;;;0.40;;
12675;SDS011;63820;65.654;21.944;2023-03-14T05:05:18;0.60;;;0.40;;
12675;SDS011;63820;65.654;21.944;2023-03-14T05:08:02;1.13;;;0.90;;
12675;SDS011;63820;65.654;21.944;2023-03-14T05:10:56;1.43;;;0.50;;
12675;SDS011;63820;65.654;21.944;2023-03-14T05:13:41;1.57;;;0.60;;
12675;SDS011;63820;65.654;21.944;2023-03-14T05:16:26;1.50;;;0.60;;
12675;SDS011;63820;65.654;21.944;2023-03-14T05:19:11;1.73;;;0.60;;
12675;SDS011;63820;65.654;21.944;2023-03-14T05:21:55;1.00;;;0.70;;
12675;SDS011;63820;65.654;21.944;2023-03-14T05:24:39;1.67;;;0.63;;
12675;SDS011;63820;65.654;21.944;2023-03-14T05:27:24;1.93;;;0.70;;
12675;SDS011;63820;65.654;21.944;2023-03-14T05:30:08;0.80;;;0.60;;
12675;SDS011;63820;65.654;21.944;2023-03-14T05:32:53;1.80;;;0.80;;
12675;SDS011;63820;65.654;21.944;2023-03-14T05:35:37;1.20;;;0.60;;
12675;SDS011;63820;65.654;21.944;2023-03-14T05:38:22;1.03;;;0.60;;
12675;SDS011;63820;65.654;21.944;2023-03-14T05:41:06;1.37;;;0.53;;
12675;SDS011;63820;65.654;21.944;2023-03-14T05:43:50;2.30;;;0.80;;
12675;SDS011;63820;65.654;21.944;2023-03-14T05:46:35;1.00;;;0.63;;
12675;SDS011;63820;65.654;21.944;2023-03-14T05:49:19;1.27;;;0.70;;
12675;SDS011;63820;65.654;21.944;2023-03-14T05:52:03;2.93;;;0.70;;
12675;SDS011;63820;65.654;21.944;2023-03-14T05:54:48;0.80;;;0.60;;
12675;SDS011;63820;65.654;21.944;2023-03-14T05:57:32;2.47;;;0.80;;
12675;SDS011;63820;65.654;21.944;2023-03-14T06:00:16;1.10;;;0.60;;
12675;SDS011;63820;65.654;21.944;2023-03-14T06:03:01;1.50;;;1.30;;
12675;SDS011;63820;65.654;21.944;2023-03-14T06:05:45;2.40;;;0.90;;
12675;SDS011;63820;65.654;21.944;2023-03-14T06:08:29;1.80;;;0.90;;
12675;SDS011;63820;65.654;21.944;2023-03-14T06:11:13;1.93;;;0.90;;
12675;SDS011;63820;65.654;21.944;2023-03-14T06:13:57;2.07;;;1.00;;
12675;SDS011;63820;65.654;21.944;2023-03-14T06:16:42;1.33;;;0.90;;
12675;SDS011;63820;65.654;21.944;2023-03-14T06:19:26;2.83;;;1.17;;
12675;SDS011;63820;65.654;21.944;2023-03-14T06:22:10;1.30;;;0.73;;
12675;SDS011;63820;65.654;21.944;2023-03-14T06:24:55;2.83;;;0.93;;
12675;SDS011;63820;65.654;21.944;2023-03-14T06:27:39;2.30;;;0.97;;
12675;SDS011;63820;65.654;21.944;2023-03-14T06:30:24;1.53;;;0.73;;
12675;SDS011;63820;65.654;21.944;2023-03-14T06:33:08;1.80;;;0.80;;
12675;SDS011;63820;65.654;21.944;2023-03-14T06:35:52;1.03;;;0.73;;
12675;SDS011;63820;65.654;21.944;2023-03-14T06:38:37;1.43;;;0.70;;
12675;SDS011;63820;65.654;21.944;2023-03-14T06:41:21;0.90;;;0.70;;
12675;SDS011;63820;65.654;21.944;2023-03-14T06:44:07;0.87;;;0.87;;
12675;SDS011;63820;65.654;21.944;2023-03-14T06:46:51;1.50;;;0.50;;
12675;SDS011;63820;65.654;21.944;2023-03-14T06:49:35;1.40;;;0.70;;
12675;SDS011;63820;65.654;21.944;2023-03-14T06:52:19;0.43;;;0.43;;
12675;SDS011;63820;65.654;21.944;2023-03-14T06:55:04;1.37;;;0.73;;
12675;SDS011;63820;65.654;21.944;2023-03-14T06:57:48;0.50;;;0.40;;
12675;SDS011;63820;65.654;21.944;2023-03-14T07:00:33;0.50;;;0.40;;
12675;SDS011;63820;65.654;21.944;2023-03-14T07:03:18;0.97;;;0.70;;
12675;SDS011;63820;65.654;21.944;2023-03-14T07:06:02;1.03;;;0.67;;
12675;SDS011;63820;65.654;21.944;2023-03-14T07:08:46;0.50;;;0.50;;
12675;SDS011;63820;65.654;21.944;2023-03-14T07:11:31;1.80;;;0.50;;
12675;SDS011;63820;65.654;21.944;2023-03-14T07:14:15;1.03;;;0.50;;
12675;SDS011;63820;65.654;21.944;2023-03-14T07:16:59;2.23;;;0.60;;
12675;SDS011;63820;65.654;21.944;2023-03-14T07:19:43;1.37;;;0.70;;
12675;SDS011;63820;65.654;21.944;2023-03-14T07:22:27;0.87;;;0.60;;
12675;SDS011;63820;65.654;21.944;2023-03-14T07:25:11;0.80;;;0.80;;
12675;SDS011;63820;65.654;21.944;2023-03-14T07:27:55;0.97;;;0.43;;
12675;SDS011;63820;65.654;21.944;2023-03-14T07:30:40;0.73;;;0.53;;
12675;SDS011;63820;65.654;21.944;2023-03-14T07:33:24;2.30;;;0.40;;
12675;SDS011;63820;65.654;21.944;2023-03-14T07:36:08;0.77;;;0.50;;
12675;SDS011;63820;65.654;21.944;2023-03-14T07:38:52;1.93;;;0.67;;
12675;SDS011;63820;65.654;21.944;2023-03-14T07:41:37;1.00;;;0.60;;
12675;SDS011;63820;65.654;21.944;2023-03-14T07:44:21;0.70;;;0.53;;
12675;SDS011;63820;65.654;21.944;2023-03-14T07:47:05;1.93;;;1.47;;
12675;SDS011;63820;65.654;21.944;2023-03-14T07:49:49;2.70;;;1.13;;
12675;SDS011;63820;65.654;21.944;2023-03-14T07:52:33;2.33;;;1.00;;
12675;SDS011;63820;65.654;21.944;2023-03-14T07:55:17;4.10;;;1.93;;
12675;SDS011;63820;65.654;21.944;2023-03-14T07:58:01;2.23;;;0.90;;
12675;SDS011;63820;65.654;21.944;2023-03-14T08:00:46;2.43;;;1.30;;
12675;SDS011;63820;65.654;21.944;2023-03-14T08:03:30;1.67;;;0.93;;
12675;SDS011;63820;65.654;21.944;2023-03-14T08:06:15;2.70;;;1.20;;
12675;SDS011;63820;65.654;21.944;2023-03-14T08:08:59;1.70;;;1.00;;
12675;SDS011;63820;65.654;21.944;2023-03-14T08:11:43;2.40;;;0.80;;
12675;SDS011;63820;65.654;21.944;2023-03-14T08:14:27;1.17;;;0.90;;
12675;SDS011;63820;65.654;21.944;2023-03-14T08:17:12;1.77;;;1.00;;
12675;SDS011;63820;65.654;21.944;2023-03-14T08:19:57;3.93;;;1.10;;
12675;SDS011;63820;65.654;21.944;2023-03-14T08:22:41;1.00;;;0.60;;
12675;SDS011;63820;65.654;21.944;2023-03-14T08:25:26;1.73;;;0.93;;
12675;SDS011;63820;65.654;21.944;2023-03-14T08:28:12;1.20;;;0.80;;
12675;SDS011;63820;65.654;21.944;2023-03-14T08:30:56;1.90;;;0.90;;
12675;SDS011;63820;65.654;21.944;2023-03-14T08:33:41;1.23;;;0.63;;
12675;SDS011;63820;65.654;21.944;2023-03-14T08:36:26;2.50;;;0.90;;
12675;SDS011;63820;65.654;21.944;2023-03-14T08:39:10;0.43;;;0.40;;
12675;SDS011;63820;65.654;21.944;2023-03-14T08:41:55;0.87;;;0.50;;
12675;SDS011;63820;65.654;21.944;2023-03-14T08:44:38;0.83;;;0.50;;
12675;SDS011;63820;65.654;21.944;2023-03-14T08:47:23;0.93;;;0.60;;
12675;SDS011;63820;65.654;21.944;2023-03-14T08:50:07;1.80;;;0.60;;
12675;SDS011;63820;65.654;21.944;2023-03-14T08:52:52;0.50;;;0.43;;
12675;SDS011;63820;65.654;21.944;2023-03-14T08:55:37;0.80;;;0.50;;
12675;SDS011;63820;65.654;21.944;2023-03-14T08:58:20;0.80;;;0.50;;
12675;SDS011;63820;65.654;21.944;2023-03-14T09:01:07;1.67;;;0.50;;
12675;SDS011;63820;65.654;21.944;2023-03-14T09:03:53;0.50;;;0.40;;
12675;SDS011;63820;65.654;21.944;2023-03-14T09:06:37;0.50;;;0.40;;
12675;SDS011;63820;65.654;21.944;2023-03-14T09:09:21;1.13;;;0.50;;
12675;SDS011;63820;65.654;21.944;2023-03-14T09:12:05;0.77;;;0.50;;
12675;SDS011;63820;65.654;21.944;2023-03-14T09:14:50;1.47;;;0.50;;
12675;SDS011;63820;65.654;21.944;2023-03-14T09:17:34;0.40;;;0.40;;
12675;SDS011;63820;65.654;21.944;2023-03-14T09:20:19;2.43;;;0.40;;
12675;SDS011;63820;65.654;21.944;2023-03-14T09:23:03;0.77;;;0.33;;
12675;SDS011;63820;65.654;21.944;2023-03-14T09:25:47;0.60;;;0.60;;
12675;SDS011;63820;65.654;21.944;2023-03-14T09:28:31;1.00;;;0.50;;
12675;SDS011;63820;65.654;21.944;2023-03-14T09:31:16;0.53;;;0.53;;
12675;SDS011;63820;65.654;21.944;2023-03-14T09:34:01;0.83;;;0.60;;
12675;SDS011;63820;65.654;21.944;2023-03-14T09:36:46;0.50;;;0.50;;
12675;SDS011;63820;65.654;21.944;2023-03-14T09:39:29;0.50;;;0.50;;
12675;SDS011;63820;65.654;21.944;2023-03-14T09:42:14;2.00;;;0.60;;
12675;SDS011;63820;65.654;21.944;2023-03-14T09:45:06;0.87;;;0.57;;
12675;SDS011;63820;65.654;21.944;2023-03-14T09:47:57;0.50;;;0.50;;
12675;SDS011;63820;65.654;21.944;2023-03-14T09:50:44;0.80;;;0.53;;
12675;SDS011;63820;65.654;21.944;2023-03-14T09:53:43;0.57;;;0.50;;
12675;SDS011;63820;65.654;21.944;2023-03-14T09:56:29;2.93;;;0.40;;
12675;SDS011;63820;65.654;21.944;2023-03-14T09:59:16;0.77;;;0.40;;
12675;SDS011;63820;65.654;21.944;2023-03-14T10:02:01;0.77;;;0.50;;
12675;SDS011;63820;65.654;21.944;2023-03-14T10:04:55;0.83;;;0.40;;
12675;SDS011;63820;65.654;21.944;2023-03-14T10:07:39;0.60;;;0.60;;
12675;SDS011;63820;65.654;21.944;2023-03-14T10:10:24;0.60;;;0.50;;
12675;SDS011;63820;65.654;21.944;2023-03-14T10:16:11;0.40;;;0.40;;
12675;SDS011;63820;65.654;21.944;2023-03-14T10:19:00;0.50;;;0.40;;
12675;SDS011;63820;65.654;21.944;2023-03-14T10:21:53;0.73;;;0.50;;
12675;SDS011;63820;65.654;21.944;2023-03-14T10:24:37;0.60;;;0.40;;
12675;SDS011;63820;65.654;21.944;2023-03-14T10:27:40;0.50;;;0.50;;
12675;SDS011;63820;65.654;21.944;2023-03-14T10:30:30;0.70;;;0.47;;
12675;SDS011;63820;65.654;21.944;2023-03-14T10:33:28;0.60;;;0.60;;
12675;SDS011;63820;65.654;21.944;2023-03-14T10:36:16;1.07;;;0.50;;
12675;SDS011;63820;65.654;21.944;2023-03-14T10:39:18;0.53;;;0.50;;
12675;SDS011;63820;65.654;21.944;2023-03-14T10:42:17;0.30;;;0.30;;
12675;SDS011;63820;65.654;21.944;2023-03-14T10:45:07;0.63;;;0.40;;
12675;SDS011;63820;65.654;21.944;2023-03-14T10:48:19;0.60;;;0.40;;
12675;SDS011;63820;65.654;21.944;2023-03-14T10:51:19;1.13;;;0.70;;
12675;SDS011;63820;65.654;21.944;2023-03-14T10:54:19;1.90;;;0.50;;
12675;SDS011;63820;65.654;21.944;2023-03-14T10:57:05;1.07;;;0.40;;
12675;SDS011;63820;65.654;21.944;2023-03-14T10:59:53;1.17;;;0.50;;
12675;SDS011;63820;65.654;21.944;2023-03-14T11:08:55;0.40;;;0.33;;
12675;SDS011;63820;65.654;21.944;2023-03-14T11:11:49;0.47;;;0.40;;
12675;SDS011;63820;65.654;21.944;2023-03-14T11:14:34;0.67;;;0.50;;
12675;SDS011;63820;65.654;21.944;2023-03-14T11:17:25;0.60;;;0.50;;
12675;SDS011;63820;65.654;21.944;2023-03-14T11:20:27;1.37;;;0.50;;
12675;SDS011;63820;65.654;21.944;2023-03-14T11:23:32;0.93;;;0.50;;
12675;SDS011;63820;65.654;21.944;2023-03-14T11:26:25;0.60;;;0.40;;
12675;SDS011;63820;65.654;21.944;2023-03-14T11:38:34;0.60;;;0.53;;
12675;SDS011;63820;65.654;21.944;2023-03-14T11:41:32;0.63;;;0.50;;
12675;SDS011;63820;65.654;21.944;2023-03-14T11:44:22;0.50;;;0.40;;
12675;SDS011;63820;65.654;21.944;2023-03-14T11:47:18;0.70;;;0.40;;
12675;SDS011;63820;65.654;21.944;2023-03-14T11:53:04;0.77;;;0.63;;
12675;SDS011;63820;65.654;21.944;2023-03-14T11:55:55;0.63;;;0.50;;
12675;SDS011;63820;65.654;21.944;2023-03-14T11:58:39;0.47;;;0.40;;
12675;SDS011;63820;65.654;21.944;2023-03-14T12:02:09;0.47;;;0.40;;
12675;SDS011;63820;65.654;21.944;2023-03-14T12:20:05;0.40;;;0.40;;
12675;SDS011;63820;65.654;21.944;2023-03-14T12:23:04;0.40;;;0.40;;
12675;SDS011;63820;65.654;21.944;2023-03-14T12:34:52;0.40;;;0.40;;
12675;SDS011;63820;65.654;21.944;2023-03-14T12:37:40;0.80;;;0.37;;
12675;SDS011;63820;65.654;21.944;2023-03-14T12:40:31;0.40;;;0.40;;
12675;SDS011;63820;65.654;21.944;2023-03-14T12:43:31;0.40;;;0.40;;
12675;SDS011;63820;65.654;21.944;2023-03-14T12:51:45;0.40;;;0.40;;
12675;SDS011;63820;65.654;21.944;2023-03-14T13:00:23;0.47;;;0.40;;
12675;SDS011;63820;65.654;21.944;2023-03-14T13:06:00;0.40;;;0.40;;
12675;SDS011;63820;65.654;21.944;2023-03-14T13:08:48;0.40;;;0.40;;
12675;SDS011;63820;65.654;21.944;2023-03-14T13:11:36;0.37;;;0.30;;
12675;SDS011;63820;65.654;21.944;2023-03-14T13:14:20;0.90;;;0.60;;
12675;SDS011;63820;65.654;21.944;2023-03-14T13:17:09;0.37;;;0.30;;
12675;SDS011;63820;65.654;21.944;2023-03-14T13:19:57;0.40;;;0.40;;
12675;SDS011;63820;65.654;21.944;2023-03-14T13:22:49;0.83;;;0.50;;
12675;SDS011;63820;65.654;21.944;2023-03-14T13:25:35;1.27;;;0.40;;
12675;SDS011;63820;65.654;21.944;2023-03-14T13:28:20;0.40;;;0.40;;
12675;SDS011;63820;65.654;21.944;2023-03-14T13:31:04;0.30;;;0.30;;
12675;SDS011;63820;65.654;21.944;2023-03-14T13:33:56;0.30;;;0.30;;
12675;SDS011;63820;65.654;21.944;2023-03-14T13:36:45;0.70;;;0.50;;
12675;SDS011;63820;65.654;21.944;2023-03-14T13:39:29;0.40;;;0.40;;
12675;SDS011;63820;65.654;21.944;2023-03-14T13:42:14;0.73;;;0.40;;
12675;SDS011;63820;65.654;21.944;2023-03-14T13:44:59;0.43;;;0.40;;
12675;SDS011;63820;65.654;21.944;2023-03-14T13:47:44;0.37;;;0.37;;
12675;SDS011;63820;65.654;21.944;2023-03-14T13:50:31;0.70;;;0.40;;
12675;SDS011;63820;65.654;21.944;2023-03-14T13:53:16;0.40;;;0.40;;
12675;SDS011;63820;65.654;21.944;2023-03-14T13:56:02;0.30;;;0.30;;
12675;SDS011;63820;65.654;21.944;2023-03-14T13:58:47;0.40;;;0.40;;
12675;SDS011;63820;65.654;21.944;2023-03-14T14:01:32;0.47;;;0.37;;
12675;SDS011;63820;65.654;21.944;2023-03-14T14:04:19;0.40;;;0.40;;
12675;SDS011;63820;65.654;21.944;2023-03-14T14:07:07;0.77;;;0.57;;
12675;SDS011;63820;65.654;21.944;2023-03-14T14:09:55;0.50;;;0.40;;
12675;SDS011;63820;65.654;21.944;2023-03-14T14:12:45;0.40;;;0.30;;
12675;SDS011;63820;65.654;21.944;2023-03-14T14:15:41;0.50;;;0.40;;
12675;SDS011;63820;65.654;21.944;2023-03-14T14:18:28;0.70;;;0.40;;
12675;SDS011;63820;65.654;21.944;2023-03-14T14:21:14;0.80;;;0.37;;
12675;SDS011;63820;65.654;21.944;2023-03-14T14:23:58;0.73;;;0.40;;
12675;SDS011;63820;65.654;21.944;2023-03-14T14:26:50;0.40;;;0.30;;
12675;SDS011;63820;65.654;21.944;2023-03-14T14:29:36;0.50;;;0.47;;
12675;SDS011;63820;65.654;21.944;2023-03-14T14:32:20;0.30;;;0.30;;
12675;SDS011;63820;65.654;21.944;2023-03-14T14:35:05;0.40;;;0.40;;
12675;SDS011;63820;65.654;21.944;2023-03-14T14:37:50;1.17;;;0.50;;
12675;SDS011;63820;65.654;21.944;2023-03-14T14:40:34;0.33;;;0.33;;
12675;SDS011;63820;65.654;21.944;2023-03-14T14:43:36;0.27;;;0.27;;
12675;SDS011;63820;65.654;21.944;2023-03-14T14:46:25;0.40;;;0.40;;
12675;SDS011;63820;65.654;21.944;2023-03-14T14:49:13;0.40;;;0.40;;
12675;SDS011;63820;65.654;21.944;2023-03-14T14:52:03;1.13;;;0.40;;
12675;SDS011;63820;65.654;21.944;2023-03-14T14:54:53;0.30;;;0.30;;
12675;SDS011;63820;65.654;21.944;2023-03-14T14:57:47;0.67;;;0.37;;
12675;SDS011;63820;65.654;21.944;2023-03-14T15:00:33;0.30;;;0.30;;
12675;SDS011;63820;65.654;21.944;2023-03-14T15:03:18;0.53;;;0.53;;
12675;SDS011;63820;65.654;21.944;2023-03-14T15:06:02;0.47;;;0.40;;
12675;SDS011;63820;65.654;21.944;2023-03-14T15:08:48;0.60;;;0.40;;
12675;SDS011;63820;65.654;21.944;2023-03-14T15:11:33;0.30;;;0.30;;
12675;SDS011;63820;65.654;21.944;2023-03-14T15:14:17;0.40;;;0.40;;
12675;SDS011;63820;65.654;21.944;2023-03-14T15:17:01;0.40;;;0.30;;
12675;SDS011;63820;65.654;21.944;2023-03-14T15:19:46;0.60;;;0.50;;
12675;SDS011;63820;65.654;21.944;2023-03-14T15:22:31;0.53;;;0.40;;
12675;SDS011;63820;65.654;21.944;2023-03-14T15:25:15;0.97;;;0.53;;
12675;SDS011;63820;65.654;21.944;2023-03-14T15:27:59;0.30;;;0.30;;
12675;SDS011;63820;65.654;21.944;2023-03-14T15:30:43;0.63;;;0.50;;
12675;SDS011;63820;65.654;21.944;2023-03-14T15:33:27;0.30;;;0.30;;
12675;SDS011;63820;65.654;21.944;2023-03-14T15:36:19;0.50;;;0.50;;
12675;SDS011;63820;65.654;21.944;2023-03-14T15:39:05;0.87;;;0.40;;
12675;SDS011;63820;65.654;21.944;2023-03-14T15:41:50;0.97;;;0.50;;
12675;SDS011;63820;65.654;21.944;2023-03-14T15:44:34;2.10;;;0.50;;
12675;SDS011;63820;65.654;21.944;2023-03-14T15:47:18;1.23;;;0.40;;
12675;SDS011;63820;65.654;21.944;2023-03-14T15:50:03;0.40;;;0.40;;
12675;SDS011;63820;65.654;21.944;2023-03-14T15:52:48;1.47;;;0.40;;
12675;SDS011;63820;65.654;21.944;2023-03-14T15:55:32;1.80;;;0.60;;
12675;SDS011;63820;65.654;21.944;2023-03-14T15:58:17;0.57;;;0.50;;
12675;SDS011;63820;65.654;21.944;2023-03-14T16:01:03;0.80;;;0.40;;
12675;SDS011;63820;65.654;21.944;2023-03-14T16:03:46;0.77;;;0.50;;
12675;SDS011;63820;65.654;21.944;2023-03-14T16:06:32;0.50;;;0.37;;
12675;SDS011;63820;65.654;21.944;2023-03-14T16:09:18;0.53;;;0.43;;
12675;SDS011;63820;65.654;21.944;2023-03-14T16:12:04;0.60;;;0.47;;
12675;SDS011;63820;65.654;21.944;2023-03-14T16:14:51;0.63;;;0.57;;
12675;SDS011;63820;65.654;21.944;2023-03-14T16:17:34;0.93;;;0.53;;
12675;SDS011;63820;65.654;21.944;2023-03-14T16:20:21;0.50;;;0.50;;
12675;SDS011;63820;65.654;21.944;2023-03-14T16:23:06;0.50;;;0.50;;
12675;SDS011;63820;65.654;21.944;2023-03-14T16:25:50;0.73;;;0.47;;
12675;SDS011;63820;65.654;21.944;2023-03-14T16:28:35;0.77;;;0.40;;
12675;SDS011;63820;65.654;21.944;2023-03-14T16:31:19;0.60;;;0.40;;
12675;SDS011;63820;65.654;21.944;2023-03-14T16:34:06;0.57;;;0.40;;
12675;SDS011;63820;65.654;21.944;2023-03-14T16:36:50;0.73;;;0.50;;
12675;SDS011;63820;65.654;21.944;2023-03-14T16:39:34;0.50;;;0.50;;
12675;SDS011;63820;65.654;21.944;2023-03-14T16:42:19;1.67;;;0.60;;
12675;SDS011;63820;65.654;21.944;2023-03-14T16:45:05;0.43;;;0.40;;
12675;SDS011;63820;65.654;21.944;2023-03-14T16:47:49;1.10;;;0.60;;
12675;SDS011;63820;65.654;21.944;2023-03-14T16:50:33;2.50;;;0.50;;
12675;SDS011;63820;65.654;21.944;2023-03-14T16:53:18;2.10;;;0.60;;
12675;SDS011;63820;65.654;21.944;2023-03-14T16:56:03;0.70;;;0.40;;
12675;SDS011;63820;65.654;21.944;2023-03-14T16:58:48;1.43;;;0.60;;
12675;SDS011;63820;65.654;21.944;2023-03-14T17:01:34;0.50;;;0.47;;
12675;SDS011;63820;65.654;21.944;2023-03-14T17:04:20;1.47;;;0.60;;
12675;SDS011;63820;65.654;21.944;2023-03-14T17:07:05;0.30;;;0.30;;
12675;SDS011;63820;65.654;21.944;2023-03-14T17:09:50;0.60;;;0.50;;
12675;SDS011;63820;65.654;21.944;2023-03-14T17:12:34;0.77;;;0.47;;
12675;SDS011;63820;65.654;21.944;2023-03-14T17:15:18;1.13;;;0.70;;
12675;SDS011;63820;65.654;21.944;2023-03-14T17:18:03;0.60;;;0.50;;
12675;SDS011;63820;65.654;21.944;2023-03-14T17:20:49;1.70;;;0.50;;
12675;SDS011;63820;65.654;21.944;2023-03-14T17:23:34;0.83;;;0.63;;
12675;SDS011;63820;65.654;21.944;2023-03-14T17:26:19;1.07;;;0.63;;
12675;SDS011;63820;65.654;21.944;2023-03-14T17:29:03;1.50;;;0.60;;
12675;SDS011;63820;65.654;21.944;2023-03-14T17:31:47;1.20;;;0.50;;
12675;SDS011;63820;65.654;21.944;2023-03-14T17:34:31;0.80;;;0.60;;